createdAt,value
2023-12-09T00:02:51.460Z,82.10
2023-12-09T00:05:54.778Z,77.30
2023-12-09T00:08:57.866Z,76.50
2023-12-09T00:12:00.933Z,88.10
2023-12-09T00:15:05.616Z,84.90
2023-12-09T00:18:09.228Z,70.60
2023-12-09T00:21:12.769Z,71.40
2023-12-09T00:24:15.877Z,79.10
2023-12-09T00:27:18.934Z,70.50
2023-12-09T00:30:22.453Z,74.40
2023-12-09T00:33:25.829Z,77.20
2023-12-09T00:36:29.035Z,76.90
2023-12-09T00:39:32.218Z,78.40
2023-12-09T00:42:35.326Z,76.20
2023-12-09T00:45:38.585Z,75.60
2023-12-09T00:48:41.744Z,81.90
2023-12-09T00:51:44.835Z,73.90
2023-12-09T00:54:48.292Z,74.80
2023-12-09T00:57:51.433Z,74.70
2023-12-09T01:00:54.498Z,80.30
2023-12-09T01:03:57.698Z,74.80
2023-12-09T01:07:00.862Z,80.10
2023-12-09T01:10:04.986Z,74.50
2023-12-09T01:13:08.082Z,69.60
2023-12-09T01:16:11.057Z,73.00
2023-12-09T01:19:14.145Z,65.80
2023-12-09T01:22:17.178Z,72.90
2023-12-09T01:25:20.212Z,73.70
2023-12-09T01:28:23.688Z,68.50
2023-12-09T01:31:26.810Z,69.90
2023-12-09T01:34:29.937Z,69.60
2023-12-09T01:37:32.954Z,68.60
2023-12-09T01:40:35.921Z,69.50
2023-12-09T01:43:38.896Z,70.40
2023-12-09T01:46:42.734Z,69.30
2023-12-09T01:49:46.320Z,71.90
2023-12-09T01:52:49.488Z,75.20
2023-12-09T01:55:52.600Z,68.70
2023-12-09T01:58:55.715Z,64.90
2023-12-09T02:01:59.465Z,72.80
2023-12-09T02:05:03.822Z,69.30
2023-12-09T02:08:06.977Z,63.00
2023-12-09T02:11:29.736Z,59.10
2023-12-09T02:15:19.217Z,65.70
2023-12-09T02:18:23.767Z,57.50
2023-12-09T02:21:27.795Z,57.60
2023-12-09T02:24:31.587Z,54.30
2023-12-09T02:27:53.501Z,60.20
2023-12-09T02:30:59.754Z,40.50
2023-12-09T02:34:04.501Z,60.50
2023-12-09T02:37:09.527Z,60.30
2023-12-09T02:40:14.927Z,64.50
2023-12-09T02:43:18.128Z,76.40
2023-12-09T02:46:21.118Z,69.50
2023-12-09T02:49:24.994Z,61.50
2023-12-09T02:52:28.438Z,64.70
2023-12-09T02:55:31.772Z,66.60
2023-12-09T02:58:34.791Z,64.20
2023-12-09T03:01:37.802Z,62.10
2023-12-09T03:04:40.901Z,68.00
2023-12-09T03:07:43.891Z,63.40
2023-12-09T03:10:46.917Z,64.50
2023-12-09T03:13:49.921Z,63.20
2023-12-09T03:16:52.865Z,56.20
2023-12-09T03:19:56.378Z,60.50
2023-12-09T03:22:59.432Z,55.60
2023-12-09T03:26:02.386Z,52.90
2023-12-09T03:29:05.765Z,52.20
2023-12-09T03:32:08.798Z,53.30
2023-12-09T03:35:13.499Z,54.80
2023-12-09T03:38:16.649Z,57.10
2023-12-09T03:41:21.231Z,56.60
2023-12-09T03:44:25.413Z,58.70
2023-12-09T03:47:29.798Z,54.60
2023-12-09T03:50:33.150Z,55.50
2023-12-09T03:53:36.190Z,50.70
2023-12-09T03:56:39.242Z,50.30
2023-12-09T03:59:42.394Z,49.90
2023-12-09T04:02:45.493Z,49.50
2023-12-09T04:05:48.671Z,48.00
2023-12-09T04:08:51.665Z,41.40
2023-12-09T04:11:54.910Z,49.70
2023-12-09T04:14:58.612Z,45.50
2023-12-09T04:18:01.791Z,44.60
2023-12-09T04:21:05.267Z,41.70
2023-12-09T04:24:08.546Z,43.50
2023-12-09T04:27:11.505Z,42.50
2023-12-09T04:30:14.815Z,42.10
2023-12-09T04:33:17.929Z,41.10
2023-12-09T04:36:21.034Z,45.60
2023-12-09T04:39:24.120Z,43.50
2023-12-09T04:42:27.589Z,40.80
2023-12-09T04:45:30.883Z,40.00
2023-12-09T04:48:34.045Z,40.50
2023-12-09T04:51:37.272Z,40.30
2023-12-09T04:54:40.367Z,41.40
2023-12-09T04:57:43.443Z,40.00
2023-12-09T05:00:46.537Z,43.20
2023-12-09T05:03:49.687Z,39.90
2023-12-09T05:06:52.841Z,41.00
2023-12-09T05:09:55.996Z,41.40
2023-12-09T05:12:59.044Z,42.40
2023-12-09T05:16:02.103Z,47.20
2023-12-09T05:19:06.981Z,40.90
2023-12-09T05:22:10.082Z,44.60
2023-12-09T05:25:13.186Z,45.10
2023-12-09T05:28:16.377Z,42.50
2023-12-09T05:31:19.934Z,45.50
2023-12-09T05:34:23.120Z,47.00
2023-12-09T05:37:26.190Z,48.20
2023-12-09T05:40:30.855Z,44.00
2023-12-09T05:43:37.024Z,46.90
2023-12-09T05:46:41.416Z,47.20
2023-12-09T05:49:44.577Z,49.40
2023-12-09T05:52:47.642Z,47.80
2023-12-09T05:55:50.682Z,48.10
2023-12-09T05:58:53.898Z,45.50
2023-12-09T06:01:57.319Z,48.20
2023-12-09T06:05:00.359Z,48.20
2023-12-09T06:08:03.613Z,49.90
2023-12-09T06:11:06.815Z,50.60
2023-12-09T06:14:09.887Z,49.00
2023-12-09T06:17:12.967Z,48.80
2023-12-09T06:20:16.204Z,47.20
2023-12-09T06:23:19.344Z,49.20
2023-12-09T06:26:22.431Z,55.50
2023-12-09T06:29:25.509Z,46.60
2023-12-09T06:32:28.838Z,45.20
2023-12-09T06:35:32.001Z,47.20
2023-12-09T06:38:40.707Z,47.00
2023-12-09T06:41:43.856Z,43.30
2023-12-09T06:44:47.091Z,44.00
2023-12-09T06:47:50.384Z,47.80
2023-12-09T06:50:53.590Z,43.70
2023-12-09T06:53:57.546Z,44.90
2023-12-09T06:57:00.731Z,42.70
2023-12-09T07:00:09.421Z,48.50
2023-12-09T07:03:12.997Z,43.90
2023-12-09T07:06:18.485Z,38.70
2023-12-09T07:09:21.971Z,35.50
2023-12-09T07:12:25.359Z,37.10
2023-12-09T07:15:28.846Z,33.40
2023-12-09T07:18:31.986Z,32.00
2023-12-09T07:21:35.242Z,31.90
2023-12-09T07:24:38.457Z,32.90
2023-12-09T07:27:41.526Z,35.30
2023-12-09T07:30:44.581Z,32.50
2023-12-09T07:33:47.824Z,30.10
2023-12-09T07:36:50.931Z,32.70
2023-12-09T07:39:53.919Z,31.80
2023-12-09T07:42:56.894Z,31.10
2023-12-09T07:45:59.931Z,30.50
2023-12-09T07:49:03.602Z,29.90
2023-12-09T07:52:06.957Z,27.30
2023-12-09T07:55:10.474Z,29.70
2023-12-09T07:58:13.610Z,28.40
2023-12-09T08:01:16.722Z,30.40
2023-12-09T08:04:19.885Z,28.50
2023-12-09T08:07:23.133Z,29.80
2023-12-09T08:10:26.172Z,31.70
2023-12-09T08:13:29.200Z,30.50
2023-12-09T08:16:32.234Z,36.90
2023-12-09T08:19:35.284Z,34.90
2023-12-09T08:22:40.219Z,36.10
2023-12-09T08:25:44.743Z,31.20
2023-12-09T08:28:47.900Z,34.30
2023-12-09T08:31:50.985Z,28.10
2023-12-09T08:35:02.851Z,26.80
2023-12-09T08:38:10.613Z,28.10
2023-12-09T08:41:13.763Z,26.20
2023-12-09T08:44:16.879Z,26.80
2023-12-09T08:47:20.066Z,26.70
2023-12-09T08:50:25.460Z,28.30
2023-12-09T08:53:29.216Z,29.90
2023-12-09T08:56:32.321Z,23.10
2023-12-09T08:59:36.952Z,26.30
2023-12-09T09:02:40.108Z,23.80
2023-12-09T09:05:43.968Z,24.20
2023-12-09T09:08:47.123Z,24.10
2023-12-09T09:11:50.633Z,27.40
2023-12-09T09:14:56.917Z,24.80
2023-12-09T09:18:00.729Z,24.80
2023-12-09T09:21:04.099Z,28.70
2023-12-09T09:24:09.181Z,27.00
2023-12-09T09:27:12.360Z,36.90
2023-12-09T09:30:16.018Z,30.50
2023-12-09T09:33:19.473Z,31.60
2023-12-09T09:36:24.277Z,30.60
2023-12-09T09:39:28.092Z,28.40
2023-12-09T09:42:45.576Z,29.70
2023-12-09T09:45:54.774Z,29.70
2023-12-09T09:49:03.812Z,29.00
2023-12-09T09:52:10.844Z,28.80
2023-12-09T09:55:16.387Z,45.80
2023-12-09T09:58:19.465Z,25.50
2023-12-09T10:01:24.827Z,25.30
2023-12-09T10:04:28.191Z,28.00
2023-12-09T10:07:31.958Z,25.60
2023-12-09T10:10:36.597Z,28.30
2023-12-09T10:13:39.853Z,27.00
2023-12-09T10:16:43.734Z,29.80
2023-12-09T10:19:46.736Z,28.10
2023-12-09T10:22:49.839Z,32.00
2023-12-09T10:25:53.068Z,29.30
2023-12-09T10:28:56.426Z,26.90
2023-12-09T10:32:02.365Z,31.40
2023-12-09T10:35:06.641Z,27.90
2023-12-09T10:38:10.299Z,25.90
2023-12-09T10:41:14.598Z,28.60
2023-12-09T10:44:18.391Z,30.50
2023-12-09T10:47:21.393Z,26.30
2023-12-09T10:50:24.802Z,30.30
2023-12-09T10:53:27.982Z,27.90
2023-12-09T10:56:31.720Z,28.20
2023-12-09T10:59:35.815Z,28.40
2023-12-09T11:02:42.564Z,25.40
2023-12-09T11:05:56.058Z,26.20
2023-12-09T11:08:59.297Z,35.90
2023-12-09T11:12:02.408Z,32.10
2023-12-09T11:15:14.625Z,29.40
2023-12-09T11:18:19.053Z,30.00
2023-12-09T11:21:27.256Z,28.10
2023-12-09T11:24:31.732Z,27.60
2023-12-09T11:27:35.997Z,26.30
2023-12-09T11:30:45.475Z,26.20
2023-12-09T11:33:50.401Z,26.40
2023-12-09T11:36:55.128Z,23.90
2023-12-09T11:39:59.165Z,25.30
2023-12-09T11:43:04.796Z,25.70
2023-12-09T11:46:07.843Z,28.90
2023-12-09T11:49:11.172Z,29.90
2023-12-09T11:52:15.235Z,26.80
2023-12-09T11:55:18.896Z,33.10
2023-12-09T11:58:21.894Z,28.60
2023-12-09T12:01:26.617Z,30.90
2023-12-09T12:04:36.827Z,31.70
2023-12-09T12:07:41.913Z,31.50
2023-12-09T12:10:44.922Z,32.20
2023-12-09T12:13:48.883Z,29.20
2023-12-09T12:16:52.032Z,30.50
2023-12-09T12:19:55.111Z,35.00
2023-12-09T12:22:58.546Z,30.60
2023-12-09T12:26:02.121Z,30.50
2023-12-09T12:29:05.452Z,29.70
2023-12-09T12:32:09.130Z,29.90
2023-12-09T12:35:12.499Z,31.40
2023-12-09T12:38:15.683Z,31.30
2023-12-09T12:41:19.092Z,34.90
2023-12-09T12:44:22.385Z,30.70
2023-12-09T12:47:25.541Z,37.40
2023-12-09T12:50:30.085Z,31.90
2023-12-09T12:53:33.341Z,38.80
2023-12-09T12:56:36.895Z,30.40
2023-12-09T12:59:43.074Z,32.80
2023-12-09T13:02:46.419Z,34.40
2023-12-09T13:05:49.606Z,33.80
2023-12-09T13:08:52.757Z,40.00
2023-12-09T13:11:55.870Z,27.60
2023-12-09T13:14:58.969Z,30.80
2023-12-09T13:18:02.760Z,29.00
2023-12-09T13:21:07.360Z,29.20
2023-12-09T13:24:12.233Z,29.20
2023-12-09T13:27:15.537Z,29.30
2023-12-09T13:30:19.036Z,29.90
2023-12-09T13:33:22.924Z,31.50
2023-12-09T13:36:26.351Z,26.60
2023-12-09T13:39:29.669Z,30.90
2023-12-09T13:42:33.358Z,26.30
2023-12-09T13:45:37.536Z,30.30
2023-12-09T13:48:41.089Z,30.60
2023-12-09T13:51:44.391Z,29.00
2023-12-09T13:54:48.526Z,26.30
2023-12-09T13:57:51.699Z,26.70
2023-12-09T14:00:55.093Z,26.10
2023-12-09T14:03:58.452Z,29.00
2023-12-09T14:07:02.038Z,26.90
2023-12-09T14:10:06.471Z,30.40
2023-12-09T14:13:09.692Z,30.40
2023-12-09T14:16:13.996Z,30.30
2023-12-09T14:19:17.339Z,28.90
2023-12-09T14:22:20.933Z,28.40
2023-12-09T14:25:24.317Z,29.00
2023-12-09T14:28:27.504Z,31.80
2023-12-09T14:31:30.821Z,30.10
2023-12-09T14:34:34.331Z,29.50
2023-12-09T14:37:37.738Z,28.10
2023-12-09T14:40:41.729Z,29.20
2023-12-09T14:43:47.025Z,31.40
2023-12-09T14:46:51.834Z,30.10
2023-12-09T14:49:55.198Z,33.00
2023-12-09T14:52:58.413Z,32.00
2023-12-09T14:56:02.160Z,30.80
2023-12-09T14:59:06.545Z,29.80
2023-12-09T15:02:09.773Z,29.60
2023-12-09T15:05:13.062Z,29.80
2023-12-09T15:08:16.258Z,29.40
2023-12-09T15:11:19.639Z,30.60
2023-12-09T15:14:22.946Z,32.70
2023-12-09T15:17:26.550Z,32.80
2023-12-09T15:20:29.859Z,36.00
2023-12-09T15:23:33.002Z,35.60
2023-12-09T15:26:36.563Z,33.60
2023-12-09T15:29:40.404Z,35.20
2023-12-09T15:32:45.549Z,30.50
2023-12-09T15:35:48.993Z,35.40
2023-12-09T15:38:52.193Z,35.90
2023-12-09T15:41:55.572Z,33.80
2023-12-09T15:44:58.913Z,37.50
2023-12-09T15:48:02.454Z,44.60
2023-12-09T15:51:08.314Z,44.40
2023-12-09T15:54:11.603Z,38.20
2023-12-09T15:57:14.995Z,39.10
2023-12-09T16:00:18.537Z,37.40
2023-12-09T16:03:21.994Z,41.70
2023-12-09T16:06:25.273Z,36.40
2023-12-09T16:09:28.589Z,37.50
2023-12-09T16:12:32.740Z,46.50
2023-12-09T16:15:36.141Z,44.60
2023-12-09T16:18:40.360Z,44.70
2023-12-09T16:21:44.267Z,45.40
2023-12-09T16:24:49.166Z,44.70
2023-12-09T16:27:52.432Z,48.50
2023-12-09T16:30:58.369Z,45.70
2023-12-09T16:34:03.960Z,45.00
2023-12-09T16:37:07.317Z,42.70
2023-12-09T16:40:13.137Z,41.20
2023-12-09T16:43:16.329Z,42.80
2023-12-09T16:46:19.945Z,48.70
2023-12-09T16:49:23.752Z,50.60
2023-12-09T16:52:27.322Z,44.70
2023-12-09T16:55:30.799Z,44.10
2023-12-09T16:58:34.165Z,41.20
2023-12-09T17:01:41.375Z,44.50
2023-12-09T17:04:44.644Z,37.40
2023-12-09T17:07:47.821Z,36.70
2023-12-09T17:10:50.868Z,41.10
2023-12-09T17:13:55.430Z,45.50
2023-12-09T17:17:00.777Z,49.30
2023-12-09T17:20:07.074Z,53.50
2023-12-09T17:23:10.821Z,56.90
2023-12-09T17:26:15.051Z,60.70
2023-12-09T17:29:18.337Z,60.90
2023-12-09T17:32:21.410Z,65.40
2023-12-09T17:35:29.920Z,63.80
2023-12-09T17:38:33.424Z,66.60
2023-12-09T17:41:36.591Z,64.50
2023-12-09T17:44:40.136Z,71.70
2023-12-09T17:47:43.369Z,68.70
2023-12-09T17:50:46.914Z,65.30
2023-12-09T17:53:50.032Z,61.60
2023-12-09T17:56:53.095Z,64.70
2023-12-09T17:59:56.510Z,63.20
2023-12-09T18:02:59.656Z,60.10
2023-12-09T18:06:04.669Z,59.70
2023-12-09T18:09:08.116Z,59.30
2023-12-09T18:12:11.523Z,63.90
2023-12-09T18:15:14.794Z,66.80
2023-12-09T18:18:18.816Z,63.90
2023-12-09T18:21:24.987Z,61.50
2023-12-09T18:24:28.498Z,59.50
2023-12-09T18:27:32.831Z,60.90
2023-12-09T18:30:36.371Z,56.30
2023-12-09T18:33:40.268Z,53.20
2023-12-09T18:36:43.591Z,58.50
2023-12-09T18:39:46.817Z,56.10
2023-12-09T18:42:52.268Z,56.90
2023-12-09T18:45:55.955Z,61.10
2023-12-09T18:49:00.544Z,52.50
2023-12-09T18:52:05.315Z,53.30
2023-12-09T18:55:08.836Z,56.10
2023-12-09T18:58:13.345Z,58.00
2023-12-09T19:01:16.743Z,60.00
2023-12-09T19:04:19.916Z,63.80
2023-12-09T19:07:24.991Z,62.70
2023-12-09T19:10:29.151Z,63.10
2023-12-09T19:13:32.804Z,58.70
2023-12-09T19:16:36.608Z,61.60
2023-12-09T19:19:39.936Z,61.10
2023-12-09T19:22:43.954Z,63.20
2023-12-09T19:25:47.342Z,58.70
2023-12-09T19:28:50.618Z,58.10
2023-12-09T19:31:53.784Z,52.50
2023-12-09T19:34:57.185Z,63.50
2023-12-09T19:38:00.267Z,65.30
2023-12-09T19:41:03.829Z,73.50
2023-12-09T19:44:07.138Z,59.70
2023-12-09T19:47:10.419Z,58.70
2023-12-09T19:50:13.832Z,57.40
2023-12-09T19:53:16.940Z,53.50
2023-12-09T19:56:20.199Z,47.30
2023-12-09T19:59:23.476Z,46.00
2023-12-09T20:02:26.875Z,45.30
2023-12-09T20:05:30.072Z,44.20
2023-12-09T20:08:33.347Z,49.50
2023-12-09T20:11:36.421Z,56.80
2023-12-09T20:14:39.756Z,56.90
2023-12-09T20:17:42.959Z,56.60
2023-12-09T20:20:46.106Z,57.20
2023-12-09T20:23:49.376Z,55.80
2023-12-09T20:26:52.587Z,47.90
2023-12-09T20:29:55.979Z,52.30
2023-12-09T20:32:59.199Z,52.40
2023-12-09T20:36:03.405Z,52.40
2023-12-09T20:39:06.648Z,53.90
2023-12-09T20:42:09.793Z,63.20
2023-12-09T20:45:13.120Z,64.80
2023-12-09T20:48:17.275Z,68.20
2023-12-09T20:51:22.773Z,65.50
2023-12-09T20:54:25.897Z,64.70
2023-12-09T20:57:28.982Z,63.60
2023-12-09T21:00:32.148Z,70.40
2023-12-09T21:03:35.334Z,64.10
2023-12-09T21:06:38.585Z,68.90
2023-12-09T21:09:41.936Z,68.40
2023-12-09T21:12:45.396Z,72.70
2023-12-09T21:15:48.583Z,65.30
2023-12-09T21:18:52.145Z,66.80
2023-12-09T21:21:56.284Z,66.00
2023-12-09T21:24:59.981Z,67.70
2023-12-09T21:28:04.852Z,67.70
2023-12-09T21:31:15.301Z,68.20
2023-12-09T21:34:18.937Z,66.30
2023-12-09T21:37:22.131Z,70.60
2023-12-09T21:40:25.307Z,70.70
2023-12-09T21:43:28.395Z,67.40
2023-12-09T21:46:31.698Z,66.80
2023-12-09T21:49:34.807Z,72.20
2023-12-09T21:52:38.053Z,70.50
2023-12-09T21:55:41.724Z,70.90
2023-12-09T21:58:44.837Z,69.30
2023-12-09T22:01:50.534Z,71.90
2023-12-09T22:04:56.013Z,73.90
2023-12-09T22:07:59.133Z,70.10
2023-12-09T22:11:02.458Z,72.90
2023-12-09T22:14:05.508Z,79.00
2023-12-09T22:17:08.738Z,84.00
2023-12-09T22:20:12.173Z,85.10
2023-12-09T22:23:15.251Z,85.60
2023-12-09T22:26:18.308Z,79.60
2023-12-09T22:29:21.624Z,86.60
2023-12-09T22:32:26.003Z,85.70
2023-12-09T22:35:33.106Z,82.70
2023-12-09T22:38:36.319Z,78.70
2023-12-09T22:41:40.033Z,79.20
2023-12-09T22:44:43.914Z,84.70
2023-12-09T22:47:47.188Z,76.30
2023-12-09T22:50:51.984Z,76.40
2023-12-09T22:53:56.513Z,75.10
2023-12-09T22:56:59.745Z,71.60
2023-12-09T23:00:09.799Z,69.30
2023-12-09T23:03:13.159Z,74.90
2023-12-09T23:06:17.072Z,63.70
2023-12-09T23:09:20.246Z,71.20
2023-12-09T23:12:23.425Z,62.20
2023-12-09T23:15:26.571Z,68.90
2023-12-09T23:18:30.384Z,64.70
2023-12-09T23:21:33.657Z,60.60
2023-12-09T23:24:37.804Z,59.20
2023-12-09T23:27:41.021Z,62.20
2023-12-09T23:30:44.198Z,59.80
2023-12-09T23:33:47.360Z,58.70
2023-12-09T23:36:50.657Z,60.70
2023-12-09T23:39:53.869Z,60.10
2023-12-09T23:42:57.013Z,67.60
2023-12-09T23:46:00.182Z,62.90
2023-12-09T23:49:03.411Z,62.90
2023-12-09T23:52:06.647Z,62.10
2023-12-09T23:55:09.827Z,66.00
2023-12-09T23:58:13.007Z,63.80
